createdAt,value
2022-08-19T00:09:48.223Z,96674.75
2022-08-19T00:14:41.910Z,96679.56
2022-08-19T00:19:36.304Z,96672.22
2022-08-19T00:24:29.689Z,96658.94
2022-08-19T00:29:26.748Z,96662.63
2022-08-19T00:34:20.281Z,96673.25
2022-08-19T00:39:16.347Z,96661.97
2022-08-19T00:44:16.980Z,96664.75
2022-08-19T00:49:18.316Z,96661.59
2022-08-19T00:54:12.164Z,96672.09
2022-08-19T00:59:09.909Z,96667.31
2022-08-19T01:04:03.609Z,96670.97
2022-08-19T01:08:58.446Z,96672.97
2022-08-19T01:13:55.167Z,96664.72
2022-08-19T01:18:50.174Z,96660.69
2022-08-19T01:23:45.308Z,96649.09
2022-08-19T01:28:42.295Z,96645.56
2022-08-19T01:33:36.194Z,96650.22
2022-08-19T01:38:32.586Z,96653.19
2022-08-19T01:43:27.630Z,96659.84
2022-08-19T01:48:20.980Z,96655.84
2022-08-19T01:53:14.575Z,96652.03
2022-08-19T01:58:13.102Z,96638.41
2022-08-19T02:03:10.345Z,96623.16
2022-08-19T02:08:03.853Z,96623.50
2022-08-19T02:12:57.230Z,96623.03
2022-08-19T02:17:50.759Z,96622.66
2022-08-19T02:22:46.086Z,96625.50
2022-08-19T02:27:39.740Z,96632.13
2022-08-19T02:32:33.359Z,96633.16
2022-08-19T02:37:45.515Z,96632.13
2022-08-19T02:42:41.737Z,96635.44
2022-08-19T02:47:35.406Z,96634.44
2022-08-19T02:52:29.186Z,96640.41
2022-08-19T02:57:23.110Z,96637.91
2022-08-19T03:02:21.155Z,96635.63
2022-08-19T03:07:17.425Z,96630.78
2022-08-19T03:12:12.480Z,96628.81
2022-08-19T03:17:06.808Z,96637.09
2022-08-19T03:22:01.523Z,96629.13
2022-08-19T03:26:58.745Z,96643.59
2022-08-19T03:31:53.068Z,96637.75
2022-08-19T03:36:48.184Z,96639.75
2022-08-19T03:41:48.257Z,96655.22
2022-08-19T03:46:42.396Z,96647.41
2022-08-19T03:51:41.041Z,96634.59
2022-08-19T03:56:36.979Z,96622.53
2022-08-19T04:01:34.955Z,96615.38
2022-08-19T04:06:33.505Z,96612.88
2022-08-19T04:11:32.515Z,96607.56
2022-08-19T04:16:39.193Z,96612.75
2022-08-19T04:21:32.827Z,96598.31
2022-08-19T04:26:33.023Z,96598.91
2022-08-19T04:31:29.838Z,96616.84
2022-08-19T04:36:28.122Z,96627.13
2022-08-19T04:41:38.746Z,96630.91
2022-08-19T04:46:39.254Z,96640.88
2022-08-19T04:51:37.817Z,96641.75
2022-08-19T04:56:31.782Z,96657.88
2022-08-19T05:01:29.338Z,96657.69
2022-08-19T05:06:25.828Z,96665.31
2022-08-19T05:11:26.635Z,96674.56
2022-08-19T05:16:24.108Z,96675.94
2022-08-19T05:21:38.977Z,96679.75
2022-08-19T05:26:33.659Z,96696.22
2022-08-19T05:31:26.984Z,96705.19
2022-08-19T05:36:20.938Z,96703.53
2022-08-19T05:41:18.306Z,96709.84
2022-08-19T05:46:27.986Z,96695.09
2022-08-19T05:51:21.540Z,96703.41
2022-08-19T05:56:18.741Z,96694.97
2022-08-19T06:01:18.007Z,96686.88
2022-08-19T06:06:14.604Z,96679.25
2022-08-19T06:11:34.277Z,96669.47
2022-08-19T06:16:31.139Z,96678.06
2022-08-19T06:21:28.145Z,96689.03
2022-08-19T06:26:23.229Z,96695.34
2022-08-19T06:31:18.788Z,96691.19
2022-08-19T06:36:25.263Z,96686.00
2022-08-19T06:41:19.523Z,96680.69
2022-08-19T06:46:16.056Z,96682.88
2022-08-19T06:51:09.489Z,96683.84
2022-08-19T06:56:04.936Z,96683.66
2022-08-19T07:00:58.591Z,96685.09
2022-08-19T07:05:51.984Z,96687.94
2022-08-19T07:10:47.478Z,96679.66
2022-08-19T07:15:42.378Z,96687.63
2022-08-19T07:20:36.440Z,96700.22
2022-08-19T07:25:32.364Z,96700.56
2022-08-19T07:30:26.914Z,96705.88
2022-08-19T07:35:21.799Z,96708.38
2022-08-19T07:40:15.890Z,96708.69
2022-08-19T07:45:11.057Z,96710.53
2022-08-19T07:50:06.408Z,96709.53
2022-08-19T07:55:04.762Z,96711.19
2022-08-19T07:59:58.110Z,96722.53
2022-08-19T08:05:08.838Z,96718.88
2022-08-19T08:10:03.876Z,96721.47
2022-08-19T08:15:02.614Z,96725.50
2022-08-19T08:19:56.036Z,96728.66
2022-08-19T08:24:49.359Z,96736.13
2022-08-19T08:29:45.515Z,96733.47
2022-08-19T08:34:39.137Z,96735.59
2022-08-19T08:39:33.187Z,96745.41
2022-08-19T08:44:42.176Z,96750.75
2022-08-19T08:49:51.195Z,96755.91
2022-08-19T08:54:49.116Z,96751.91
2022-08-19T08:59:52.976Z,96755.75
2022-08-19T09:04:49.371Z,96765.03
2022-08-19T09:09:47.395Z,96767.31
2022-08-19T09:14:52.755Z,96772.31
2022-08-19T09:19:58.041Z,96776.28
2022-08-19T09:24:53.234Z,96775.13
2022-08-19T09:29:50.016Z,96769.34
2022-08-19T09:34:50.813Z,96780.94
2022-08-19T09:39:46.304Z,96779.28
2022-08-19T09:44:40.218Z,96780.94
2022-08-19T09:49:33.936Z,96784.59
2022-08-19T09:54:27.855Z,96786.59
2022-08-19T09:59:23.448Z,96791.22
2022-08-19T10:04:20.286Z,96791.91
2022-08-19T10:09:26.117Z,96791.06
2022-08-19T10:14:28.430Z,96798.69
2022-08-19T10:19:25.587Z,96804.66
2022-08-19T10:24:19.844Z,96805.13
2022-08-19T10:29:13.516Z,96803.47
2022-08-19T10:34:30.908Z,96808.09
2022-08-19T10:39:28.634Z,96814.25
2022-08-19T10:44:24.924Z,96827.50
2022-08-19T10:49:25.359Z,96832.81
2022-08-19T10:54:33.377Z,96827.03
2022-08-19T10:59:35.771Z,96831.69
2022-08-19T11:04:30.815Z,96826.91
2022-08-19T11:09:33.900Z,96821.91
2022-08-19T11:14:29.155Z,96825.06
2022-08-19T11:19:25.662Z,96822.22
2022-08-19T11:24:22.768Z,96822.41
2022-08-19T11:29:20.228Z,96824.91
2022-08-19T11:34:18.677Z,96819.59
2022-08-19T11:39:14.542Z,96817.59
2022-08-19T11:44:08.770Z,96802.03
2022-08-19T11:49:06.594Z,96807.63
2022-08-19T11:54:02.917Z,96812.09
2022-08-19T11:58:58.276Z,96812.75
2022-08-19T12:03:54.854Z,96808.63
2022-08-19T12:08:49.620Z,96806.31
2022-08-19T12:13:45.273Z,96801.97
2022-08-19T12:18:38.644Z,96808.44
2022-08-19T12:23:32.392Z,96810.09
2022-08-19T12:28:28.080Z,96820.72
2022-08-19T12:33:25.309Z,96818.91
2022-08-19T12:38:19.181Z,96818.41
2022-08-19T12:43:12.725Z,96821.56
2022-08-19T12:48:33.420Z,96820.75
2022-08-19T12:53:22.161Z,96825.38
2022-08-19T12:58:15.493Z,96824.06
2022-08-19T13:03:10.189Z,96829.53
2022-08-19T13:08:03.981Z,96836.81
2022-08-19T13:13:00.553Z,96840.31
2022-08-19T13:17:56.808Z,96847.78
2022-08-19T13:22:53.029Z,96850.78
2022-08-19T13:27:46.828Z,96845.78
2022-08-19T13:32:57.593Z,96848.28
2022-08-19T13:37:52.806Z,96851.94
2022-08-19T13:42:49.910Z,96855.44
2022-08-19T13:47:45.073Z,96858.25
2022-08-19T13:52:38.410Z,96863.06
2022-08-19T13:57:33.197Z,96858.91
2022-08-19T14:02:28.217Z,96863.56
2022-08-19T14:07:24.444Z,96863.22
2022-08-19T14:12:28.807Z,96875.66
2022-08-19T14:17:24.063Z,96870.88
2022-08-19T14:22:22.116Z,96869.03
2022-08-19T14:27:15.978Z,96870.69
2022-08-19T14:32:11.513Z,96877.00
2022-08-19T14:37:14.410Z,96872.03
2022-08-19T14:42:11.509Z,96876.50
2022-08-19T14:47:06.221Z,96874.69
2022-08-19T14:52:03.819Z,96876.66
2022-08-19T14:56:58.789Z,96882.44
2022-08-19T15:01:52.551Z,96880.47
2022-08-19T15:06:45.982Z,96875.34
2022-08-19T15:11:39.829Z,96883.13
2022-08-19T15:16:35.254Z,96884.13
2022-08-19T15:21:29.864Z,96890.75
2022-08-19T15:26:23.510Z,96890.94
2022-08-19T15:31:25.186Z,96895.41
2022-08-19T15:36:23.927Z,96892.09
2022-08-19T15:41:25.045Z,96896.25
2022-08-19T15:46:21.959Z,96893.59
2022-08-19T15:51:15.552Z,96894.91
2022-08-19T15:56:11.103Z,96891.41
2022-08-19T16:01:25.488Z,96893.09
2022-08-19T16:06:29.572Z,96888.28
2022-08-19T16:11:29.355Z,96890.94
2022-08-19T16:16:27.756Z,96885.47
2022-08-19T16:21:32.040Z,96888.63
2022-08-19T16:26:31.040Z,96898.72
2022-08-19T16:31:27.177Z,96899.25
2022-08-19T16:36:20.545Z,96902.22
2022-08-19T16:41:15.357Z,96900.38
2022-08-19T16:46:11.089Z,96910.00
2022-08-19T16:51:08.607Z,96906.38
2022-08-19T16:56:02.003Z,96904.72
2022-08-19T17:00:57.817Z,96903.72
2022-08-19T17:05:58.634Z,96927.28
2022-08-19T17:11:16.580Z,96939.53
2022-08-19T17:16:06.824Z,96944.53
2022-08-19T17:21:03.294Z,96936.22
2022-08-19T17:25:57.515Z,96941.38
2022-08-19T17:30:51.113Z,96938.22
2022-08-19T17:35:53.268Z,96948.66
2022-08-19T17:40:51.689Z,96937.69
2022-08-19T17:45:46.025Z,96951.16
2022-08-19T17:50:44.363Z,96957.78
2022-08-19T17:55:40.501Z,96948.66
2022-08-19T18:00:36.730Z,96946.47
2022-08-19T18:05:33.943Z,96951.41
2022-08-19T18:10:35.213Z,96932.50
2022-08-19T18:15:29.943Z,96953.41
2022-08-19T18:20:25.341Z,96952.06
2022-08-19T18:25:24.271Z,96946.09
2022-08-19T18:30:17.893Z,96938.16
2022-08-19T18:35:15.451Z,96951.59
2022-08-19T18:40:34.500Z,96953.72
2022-08-19T18:45:45.464Z,96952.72
2022-08-19T18:50:41.654Z,96965.81
2022-08-19T18:55:37.419Z,96969.81
2022-08-19T19:00:32.780Z,96982.25
2022-08-19T19:05:27.572Z,96983.31
2022-08-19T19:10:21.092Z,96986.53
2022-08-19T19:15:17.462Z,96991.44
2022-08-19T19:20:10.923Z,96980.50
2022-08-19T19:25:08.391Z,96988.50
2022-08-19T19:30:01.809Z,97001.78
2022-08-19T19:35:15.249Z,96998.13
2022-08-19T19:40:17.042Z,96996.31
2022-08-19T19:45:11.207Z,97010.06
2022-08-19T19:50:18.406Z,97011.38
2022-08-19T19:55:29.194Z,97001.94
2022-08-19T20:00:26.281Z,97007.06
2022-08-19T20:05:31.962Z,97013.72
2022-08-19T20:10:30.611Z,97030.88
2022-08-19T20:15:24.575Z,97044.13
2022-08-19T20:20:22.403Z,97029.75
2022-08-19T20:25:24.520Z,97025.00
2022-08-19T20:30:39.054Z,97040.56
2022-08-19T20:35:39.678Z,97036.25
2022-08-19T20:40:38.490Z,97039.19
2022-08-19T20:45:34.109Z,97036.41
2022-08-19T20:50:30.441Z,97036.78
2022-08-19T20:55:25.908Z,97037.78
2022-08-19T21:00:19.564Z,97036.59
2022-08-19T21:05:13.908Z,97049.16
2022-08-19T21:10:09.226Z,97049.97
2022-08-19T21:15:04.943Z,97052.03
2022-08-19T21:19:58.318Z,97048.41
2022-08-19T21:24:51.688Z,97052.50
2022-08-19T21:29:45.282Z,97047.03
2022-08-19T21:34:41.409Z,97056.28
2022-08-19T21:39:37.311Z,97076.03
2022-08-19T21:44:30.746Z,97065.06
2022-08-19T21:49:24.270Z,97064.94
2022-08-19T21:54:19.040Z,97073.44
2022-08-19T21:59:12.411Z,97076.03
2022-08-19T22:04:06.100Z,97082.34
2022-08-19T22:08:59.568Z,97094.72
2022-08-19T22:13:56.576Z,97091.75
2022-08-19T22:18:50.687Z,97082.56
2022-08-19T22:23:44.648Z,97093.41
2022-08-19T22:28:38.603Z,97090.56
2022-08-19T22:33:34.654Z,97087.28
2022-08-19T22:38:29.840Z,97093.75
2022-08-19T22:43:26.557Z,97087.41
2022-08-19T22:48:23.350Z,97088.78
2022-08-19T22:53:18.079Z,97082.63
2022-08-19T22:58:11.479Z,97076.50
2022-08-19T23:03:04.990Z,97077.38
2022-08-19T23:07:59.381Z,97084.63
2022-08-19T23:12:54.240Z,97079.66
2022-08-19T23:17:47.696Z,97076.84
2022-08-19T23:22:42.121Z,97072.88
2022-08-19T23:28:07.335Z,97066.94
2022-08-19T23:33:14.573Z,97072.25
2022-08-19T23:38:09.432Z,97070.06
2022-08-19T23:43:03.563Z,97067.78
2022-08-19T23:48:03.491Z,97073.53
2022-08-19T23:53:02.660Z,97070.28
2022-08-19T23:57:56.751Z,97061.81
